createdAt,value
2019-03-18T00:00:33.264Z,9.80
2019-03-18T00:01:44.593Z,9.80
2019-03-18T00:02:50.322Z,9.80
2019-03-18T00:03:57.765Z,9.80
2019-03-18T00:05:04.188Z,9.80
2019-03-18T00:06:13.877Z,9.70
2019-03-18T00:07:19.716Z,9.70
2019-03-18T00:08:28.319Z,9.70
2019-03-18T00:09:39.882Z,9.70
2019-03-18T00:10:40.869Z,9.70
2019-03-18T00:11:49.036Z,9.70
2019-03-18T00:12:54.308Z,9.70
2019-03-18T00:14:02.554Z,9.70
2019-03-18T00:15:09.781Z,9.70
2019-03-18T00:16:18.406Z,9.70
2019-03-18T00:17:23.966Z,9.70
2019-03-18T00:18:36.391Z,9.70
2019-03-18T00:19:38.264Z,9.70
2019-03-18T00:20:42.567Z,9.70
2019-03-18T00:21:48.432Z,9.70
2019-03-18T00:22:52.813Z,9.60
2019-03-18T00:23:58.213Z,9.60
2019-03-18T00:25:05.615Z,9.60
2019-03-18T00:26:15.720Z,9.60
2019-03-18T00:27:26.948Z,9.60
2019-03-18T00:28:34.455Z,9.60
2019-03-18T00:29:41.913Z,9.60
2019-03-18T00:30:46.243Z,9.60
2019-03-18T00:31:53.595Z,9.50
2019-03-18T00:32:58.020Z,9.50
2019-03-18T00:34:05.285Z,9.50
2019-03-18T00:35:16.297Z,9.50
2019-03-18T00:36:20.653Z,9.40
2019-03-18T00:37:24.982Z,9.40
2019-03-18T00:38:29.394Z,9.40
2019-03-18T00:39:45.503Z,9.40
2019-03-18T00:40:49.211Z,9.30
2019-03-18T00:41:56.260Z,9.30
2019-03-18T00:43:07.038Z,9.30
2019-03-18T00:44:11.242Z,9.30
2019-03-18T00:45:17.086Z,9.30
2019-03-18T00:46:21.353Z,9.30
2019-03-18T00:47:29.465Z,9.30
2019-03-18T00:48:39.277Z,9.30
2019-03-18T00:49:42.810Z,9.30
2019-03-18T00:50:50.102Z,9.20
2019-03-18T00:51:57.125Z,9.20
2019-03-18T00:53:03.284Z,9.20
2019-03-18T00:54:09.147Z,9.20
2019-03-18T00:55:17.600Z,9.20
2019-03-18T00:56:20.608Z,9.10
2019-03-18T00:57:27.956Z,9.10
2019-03-18T00:58:33.953Z,9.10
2019-03-18T00:59:39.562Z,9.10
2019-03-18T01:00:43.891Z,9.00
2019-03-18T01:01:50.556Z,9.00
2019-03-18T01:03:19.977Z,9.00
2019-03-18T01:04:25.848Z,9.00
2019-03-18T01:05:25.514Z,9.00
2019-03-18T01:06:31.269Z,8.90
2019-03-18T01:07:37.138Z,8.90
2019-03-18T01:08:41.384Z,8.90
2019-03-18T01:09:47.189Z,8.90
2019-03-18T01:10:51.615Z,8.90
2019-03-18T01:11:59.357Z,8.90
2019-03-18T01:13:11.829Z,8.80
2019-03-18T01:14:12.792Z,8.80
2019-03-18T01:15:27.802Z,8.80
2019-03-18T01:16:33.894Z,8.80
2019-03-18T01:17:41.674Z,8.80
2019-03-18T01:18:49.571Z,8.80
2019-03-18T01:19:58.949Z,8.80
2019-03-18T01:21:05.745Z,8.80
2019-03-18T01:22:12.902Z,8.80
2019-03-18T01:23:34.959Z,8.80
2019-03-18T01:24:41.640Z,8.80
2019-03-18T01:25:56.229Z,8.80
2019-03-18T01:27:16.826Z,8.80
2019-03-18T01:28:55.951Z,8.80
2019-03-18T01:30:03.880Z,8.80
2019-03-18T01:30:55.570Z,8.80
2019-03-18T01:32:29.814Z,8.80
2019-03-18T01:33:32.669Z,8.80
2019-03-18T01:36:01.390Z,8.80
2019-03-18T01:36:02.344Z,8.80
2019-03-18T01:40:04.528Z,8.80
2019-03-18T01:41:16.017Z,8.80
2019-03-18T01:42:38.585Z,8.80
2019-03-18T01:43:38.388Z,8.80
2019-03-18T01:44:45.164Z,8.80
2019-03-18T01:45:58.778Z,8.80
2019-03-18T01:47:01.975Z,8.80
2019-03-18T01:48:26.246Z,8.80
2019-03-18T01:49:38.696Z,8.80
2019-03-18T01:50:47.022Z,8.80
2019-03-18T01:51:53.241Z,8.70
2019-03-18T01:56:49.841Z,8.80
2019-03-18T01:57:23.215Z,8.70
2019-03-18T01:58:35.598Z,8.70
2019-03-18T01:59:53.854Z,8.70
2019-03-18T02:04:05.562Z,8.70
2019-03-18T02:07:16.763Z,8.70
2019-03-18T02:07:25.782Z,8.80
2019-03-18T02:08:04.610Z,8.70
2019-03-18T02:08:49.498Z,8.80
2019-03-18T02:09:53.846Z,8.80
2019-03-18T02:12:36.712Z,8.80
2019-03-18T02:13:32.004Z,8.80
2019-03-18T02:14:37.842Z,8.80
2019-03-18T02:15:53.167Z,8.80
2019-03-18T02:16:53.238Z,8.80
2019-03-18T02:17:57.419Z,8.80
2019-03-18T02:19:06.981Z,8.80
2019-03-18T02:20:19.187Z,8.80
2019-03-18T02:21:22.126Z,8.80
2019-03-18T02:22:32.286Z,8.80
2019-03-18T02:23:37.904Z,8.80
2019-03-18T02:24:43.656Z,8.80
2019-03-18T02:25:47.962Z,8.80
2019-03-18T02:26:53.811Z,8.80
2019-03-18T02:27:59.193Z,8.80
2019-03-18T02:29:04.983Z,8.80
2019-03-18T02:30:15.149Z,8.80
2019-03-18T02:31:21.384Z,8.80
2019-03-18T02:32:39.923Z,8.80
2019-03-18T02:33:31.345Z,8.80
2019-03-18T02:34:38.539Z,8.80
2019-03-18T02:35:42.063Z,8.80
2019-03-18T02:36:46.287Z,8.80
2019-03-18T02:37:50.363Z,8.80
2019-03-18T02:38:56.275Z,8.90
2019-03-18T02:40:02.221Z,8.80
2019-03-18T02:41:06.570Z,8.80
2019-03-18T02:42:12.087Z,8.90
2019-03-18T02:43:17.467Z,8.90
2019-03-18T02:44:24.334Z,8.80
2019-03-18T02:45:35.425Z,8.90
2019-03-18T02:46:39.765Z,8.80
2019-03-18T02:47:47.525Z,8.80
2019-03-18T02:48:51.922Z,8.80
2019-03-18T02:50:10.099Z,8.80
2019-03-18T02:51:17.208Z,8.70
2019-03-18T02:52:21.745Z,8.70
2019-03-18T02:53:35.795Z,8.70
2019-03-18T02:54:36.358Z,8.70
2019-03-18T02:55:45.425Z,8.70
2019-03-18T02:56:52.240Z,8.70
2019-03-18T02:58:01.089Z,8.60
2019-03-18T02:59:09.099Z,8.70
2019-03-18T03:00:16.773Z,8.60
2019-03-18T03:01:24.139Z,8.70
2019-03-18T03:02:32.909Z,8.60
2019-03-18T03:03:54.135Z,8.60
2019-03-18T03:04:59.204Z,8.60
2019-03-18T03:06:01.778Z,8.60
2019-03-18T03:07:11.283Z,8.60
2019-03-18T03:08:30.863Z,8.60
2019-03-18T03:09:32.243Z,8.60
2019-03-18T03:10:34.809Z,8.60
2019-03-18T03:11:40.824Z,8.60
2019-03-18T03:12:48.430Z,8.50
2019-03-18T03:13:52.741Z,8.50
2019-03-18T03:14:59.943Z,8.50
2019-03-18T03:16:27.165Z,8.50
2019-03-18T03:17:13.431Z,8.50
2019-03-18T03:18:28.622Z,8.50
2019-03-18T03:19:32.152Z,8.50
2019-03-18T03:20:37.910Z,8.50
2019-03-18T03:21:44.975Z,8.50
2019-03-18T03:22:50.930Z,8.50
2019-03-18T03:23:57.840Z,8.40
2019-03-18T03:25:03.701Z,8.40
2019-03-18T03:26:09.540Z,8.40
2019-03-18T03:27:17.633Z,8.40
2019-03-18T03:28:24.145Z,8.40
2019-03-18T03:29:29.784Z,8.40
2019-03-18T03:30:36.766Z,8.40
2019-03-18T03:31:46.255Z,8.40
2019-03-18T03:32:52.995Z,8.40
2019-03-18T03:34:04.917Z,8.40
2019-03-18T03:35:14.790Z,8.50
2019-03-18T03:36:22.254Z,8.40
2019-03-18T03:37:27.903Z,8.50
2019-03-18T03:38:38.058Z,8.50
2019-03-18T03:39:45.525Z,8.50
2019-03-18T03:40:54.255Z,8.50
2019-03-18T03:42:02.051Z,8.40
2019-03-18T03:43:22.248Z,8.50
2019-03-18T03:44:26.560Z,8.50
2019-03-18T03:45:35.223Z,8.50
2019-03-18T03:46:59.444Z,8.40
2019-03-18T03:47:54.865Z,8.40
2019-03-18T03:49:08.753Z,8.40
2019-03-18T03:50:35.064Z,8.40
2019-03-18T03:51:50.671Z,8.40
2019-03-18T03:52:59.473Z,8.40
2019-03-18T03:54:13.934Z,8.40
2019-03-18T03:55:35.795Z,8.30
2019-03-18T03:56:48.326Z,8.30
2019-03-18T03:58:41.712Z,8.30
2019-03-18T03:59:31.466Z,8.30
2019-03-18T04:00:28.382Z,8.30
2019-03-18T04:01:34.439Z,8.30
2019-03-18T04:02:55.647Z,8.30
2019-03-18T04:03:56.909Z,8.30
2019-03-18T04:05:10.422Z,8.30
2019-03-18T04:06:23.196Z,8.30
2019-03-18T04:07:37.255Z,8.30
2019-03-18T04:08:42.525Z,8.30
2019-03-18T04:10:04.476Z,8.30
2019-03-18T04:11:09.072Z,8.30
2019-03-18T04:12:13.077Z,8.30
2019-03-18T04:13:20.162Z,8.30
2019-03-18T04:14:24.506Z,8.20
2019-03-18T04:15:28.805Z,8.20
2019-03-18T04:16:34.529Z,8.20
2019-03-18T04:17:38.765Z,8.10
2019-03-18T04:18:52.745Z,8.10
2019-03-18T04:19:56.240Z,8.10
2019-03-18T04:21:00.558Z,8.10
2019-03-18T04:22:07.823Z,8.10
2019-03-18T04:23:12.019Z,8.10
2019-03-18T04:24:16.673Z,8.10
2019-03-18T04:25:25.077Z,8.00
2019-03-18T04:26:33.296Z,8.10
2019-03-18T04:27:42.445Z,8.10
2019-03-18T04:28:50.185Z,8.10
2019-03-18T04:29:58.661Z,8.10
2019-03-18T04:31:05.023Z,8.10
2019-03-18T04:32:13.827Z,8.10
2019-03-18T04:33:17.976Z,8.10
2019-03-18T04:34:26.982Z,8.10
2019-03-18T04:35:32.690Z,8.10
2019-03-18T04:36:38.468Z,8.00
2019-03-18T04:37:42.763Z,8.10
2019-03-18T04:38:57.502Z,8.10
2019-03-18T04:39:55.993Z,8.10
2019-03-18T04:41:09.756Z,8.10
2019-03-18T04:42:23.563Z,8.10
2019-03-18T04:43:30.527Z,8.10
2019-03-18T04:44:44.163Z,8.10
2019-03-18T04:45:45.397Z,8.10
2019-03-18T04:47:20.103Z,8.20
2019-03-18T04:48:08.618Z,8.10
2019-03-18T04:49:17.875Z,8.20
2019-03-18T04:50:28.876Z,8.20
2019-03-18T04:51:35.578Z,8.10
2019-03-18T04:52:41.530Z,8.20
2019-03-18T04:53:52.621Z,8.10
2019-03-18T04:55:04.501Z,8.10
2019-03-18T04:56:11.466Z,8.10
2019-03-18T04:57:18.125Z,8.10
2019-03-18T04:58:25.403Z,8.00
2019-03-18T04:59:30.748Z,8.10
2019-03-18T05:00:48.798Z,8.00
2019-03-18T05:02:06.211Z,8.00
2019-03-18T05:03:14.995Z,8.00
2019-03-18T05:06:07.246Z,8.00
2019-03-18T05:07:29.160Z,8.00
2019-03-18T05:10:19.638Z,8.10
2019-03-18T05:11:35.548Z,8.10
2019-03-18T05:12:52.861Z,8.10
2019-03-18T05:14:17.652Z,8.10
2019-03-18T05:15:19.979Z,8.10
2019-03-18T05:16:28.153Z,8.10
2019-03-18T05:17:42.556Z,8.10
2019-03-18T05:19:02.513Z,8.10
2019-03-18T05:20:41.045Z,8.20
2019-03-18T05:24:44.982Z,8.20
2019-03-18T05:25:52.258Z,8.20
2019-03-18T05:26:53.574Z,8.20
2019-03-18T05:28:05.440Z,8.20
2019-03-18T05:29:10.014Z,8.30
2019-03-18T05:31:09.848Z,8.30
2019-03-18T05:39:17.381Z,8.30
2019-03-18T05:42:13.817Z,8.30
2019-03-18T05:43:17.972Z,8.30
2019-03-18T05:45:52.734Z,8.40
2019-03-18T05:47:00.027Z,8.40
2019-03-18T05:48:06.536Z,8.40
2019-03-18T05:49:10.914Z,8.50
2019-03-18T05:50:20.163Z,8.50
2019-03-18T05:51:27.224Z,8.50
2019-03-18T05:52:37.374Z,8.50
2019-03-18T05:55:20.811Z,8.60
2019-03-18T05:56:31.181Z,8.60
2019-03-18T05:57:39.150Z,8.60
2019-03-18T05:58:46.819Z,8.60
2019-03-18T06:00:06.167Z,8.60
2019-03-18T06:02:10.228Z,8.60
2019-03-18T06:02:31.603Z,8.70
2019-03-18T06:03:54.397Z,8.70
2019-03-18T06:05:04.911Z,8.70
2019-03-18T06:06:12.175Z,8.70
2019-03-18T06:07:56.521Z,8.70
2019-03-18T06:08:43.555Z,8.70
2019-03-18T06:11:40.778Z,8.80
2019-03-18T06:12:28.297Z,8.80
2019-03-18T06:13:37.320Z,8.80
2019-03-18T06:14:43.965Z,8.80
2019-03-18T06:16:01.003Z,8.90
2019-03-18T06:17:10.659Z,8.90
2019-03-18T06:18:15.665Z,8.90
2019-03-18T06:19:32.455Z,9.00
2019-03-18T06:20:39.921Z,9.00
2019-03-18T06:21:45.445Z,9.00
2019-03-18T06:22:52.660Z,9.00
2019-03-18T06:24:00.015Z,9.00
2019-03-18T06:25:11.143Z,9.10
2019-03-18T06:26:29.921Z,9.00
2019-03-18T06:27:33.644Z,9.10
2019-03-18T06:28:37.885Z,9.00
2019-03-18T06:29:44.609Z,9.10
2019-03-18T06:30:52.995Z,9.10
2019-03-18T06:32:04.155Z,9.00
2019-03-18T06:33:10.804Z,9.10
2019-03-18T06:34:53.375Z,9.10
2019-03-18T06:35:28.648Z,9.00
2019-03-18T06:36:49.688Z,9.10
2019-03-18T06:37:43.081Z,9.00
2019-03-18T06:38:59.855Z,9.10
2019-03-18T06:40:05.643Z,9.10
2019-03-18T06:41:00.763Z,9.10
2019-03-18T06:42:05.161Z,9.00
2019-03-18T06:43:10.535Z,9.00
2019-03-18T06:44:16.323Z,9.00
2019-03-18T06:45:20.483Z,9.00
2019-03-18T06:46:24.854Z,8.90
2019-03-18T06:47:28.992Z,8.90
2019-03-18T06:48:33.215Z,8.90
2019-03-18T06:49:44.620Z,8.80
2019-03-18T06:50:56.189Z,8.80
2019-03-18T06:52:09.333Z,8.80
2019-03-18T06:53:15.118Z,8.70
2019-03-18T06:54:40.069Z,8.70
2019-03-18T06:55:51.811Z,8.70
2019-03-18T06:57:11.905Z,8.60
2019-03-18T06:58:06.754Z,8.60
2019-03-18T06:59:22.467Z,8.60
2019-03-18T07:01:23.803Z,8.60
2019-03-18T07:01:42.790Z,8.60
2019-03-18T07:02:47.159Z,8.50
2019-03-18T07:03:54.170Z,8.50
2019-03-18T07:05:11.677Z,8.50
2019-03-18T07:06:15.341Z,8.50
2019-03-18T07:07:33.201Z,8.50
2019-03-18T07:08:41.268Z,8.50
2019-03-18T07:09:54.438Z,8.80
2019-03-18T07:11:09.644Z,8.50
2019-03-18T07:12:38.730Z,8.50
2019-03-18T07:13:42.847Z,8.60
2019-03-18T07:14:47.890Z,8.60
2019-03-18T07:15:52.145Z,8.60
2019-03-18T07:17:02.582Z,8.60
2019-03-18T07:18:19.199Z,8.70
2019-03-18T07:21:34.200Z,8.70
2019-03-18T07:26:08.190Z,8.90
2019-03-18T07:26:36.003Z,8.90
2019-03-18T07:28:27.073Z,9.00
2019-03-18T07:29:35.354Z,9.00
2019-03-18T07:30:55.786Z,9.00
2019-03-18T07:32:02.464Z,9.00
2019-03-18T07:34:26.413Z,9.10
2019-03-18T07:35:35.987Z,9.10
2019-03-18T07:36:41.079Z,9.10
2019-03-18T07:37:58.773Z,9.20
2019-03-18T07:39:41.729Z,9.20
2019-03-18T07:42:11.574Z,9.30
2019-03-18T07:43:47.884Z,9.40
2019-03-18T07:44:39.027Z,9.40
2019-03-18T07:45:46.262Z,9.50
2019-03-18T07:47:00.132Z,9.50
2019-03-18T07:48:14.697Z,9.50
2019-03-18T07:49:13.518Z,9.60
2019-03-18T07:50:43.418Z,9.60
2019-03-18T07:51:49.128Z,9.60
2019-03-18T07:53:01.117Z,9.60
2019-03-18T07:54:18.749Z,9.60
2019-03-18T07:57:05.949Z,9.70
2019-03-18T07:58:12.452Z,9.80
2019-03-18T07:59:12.987Z,9.80
2019-03-18T08:00:22.009Z,9.80
2019-03-18T08:01:34.547Z,9.80
2019-03-18T08:02:51.705Z,9.80
2019-03-18T08:04:12.280Z,9.90
2019-03-18T08:05:32.932Z,9.90
2019-03-18T08:06:51.046Z,9.90
2019-03-18T08:08:00.797Z,9.90
2019-03-18T08:08:48.078Z,9.90
2019-03-18T08:10:01.531Z,10.00
2019-03-18T08:11:13.073Z,9.90
2019-03-18T08:12:30.120Z,10.00
2019-03-18T08:13:49.651Z,10.00
2019-03-18T08:14:51.599Z,10.00
2019-03-18T08:15:59.723Z,10.00
2019-03-18T08:24:45.827Z,10.30
2019-03-18T08:25:37.339Z,10.40
2019-03-18T08:26:44.438Z,10.40
2019-03-18T08:27:49.443Z,10.40
2019-03-18T08:30:15.151Z,10.50
2019-03-18T08:31:51.235Z,10.50
2019-03-18T08:32:52.086Z,10.50
2019-03-18T08:33:52.681Z,10.50
2019-03-18T08:34:59.561Z,10.50
2019-03-18T08:36:05.053Z,10.50
2019-03-18T08:37:12.157Z,10.50
2019-03-18T08:38:20.381Z,10.60
2019-03-18T08:39:24.748Z,10.60
2019-03-18T08:40:34.135Z,10.60
2019-03-18T08:41:36.696Z,10.60
2019-03-18T08:42:44.486Z,10.70
2019-03-18T08:43:50.297Z,10.70
2019-03-18T08:44:55.721Z,10.70
2019-03-18T08:45:59.925Z,10.70
2019-03-18T08:47:07.147Z,10.70
2019-03-18T08:48:11.557Z,10.70
2019-03-18T08:49:17.268Z,10.80
2019-03-18T08:50:23.052Z,10.80
2019-03-18T08:51:30.481Z,10.80
2019-03-18T08:52:43.192Z,10.80
2019-03-18T08:53:42.390Z,10.90
2019-03-18T08:54:46.472Z,10.90
2019-03-18T08:55:52.426Z,10.90
2019-03-18T08:56:58.940Z,10.90
2019-03-18T08:58:03.267Z,10.90
2019-03-18T08:59:15.485Z,10.90
2019-03-18T09:00:17.509Z,11.00
2019-03-18T09:01:24.568Z,11.00
2019-03-18T09:02:34.552Z,11.10
2019-03-18T09:03:40.234Z,11.10
2019-03-18T09:04:47.691Z,11.10
2019-03-18T09:05:59.206Z,11.20
2019-03-18T09:07:08.096Z,11.20
2019-03-18T09:08:21.192Z,11.20
2019-03-18T09:09:29.072Z,11.20
2019-03-18T09:10:40.477Z,11.30
2019-03-18T09:11:45.695Z,11.30
2019-03-18T09:12:51.446Z,11.30
2019-03-18T09:13:57.072Z,11.30
2019-03-18T09:15:05.157Z,11.30
2019-03-18T09:16:13.894Z,11.30
2019-03-18T09:17:26.797Z,11.30
2019-03-18T09:18:28.650Z,11.40
2019-03-18T09:19:35.216Z,11.40
2019-03-18T09:22:02.807Z,11.40
2019-03-18T09:23:11.559Z,11.40
2019-03-18T09:24:18.726Z,11.40
2019-03-18T09:25:23.147Z,11.40
2019-03-18T09:26:30.656Z,11.40
2019-03-18T09:27:38.825Z,11.40
2019-03-18T09:28:58.270Z,11.40
2019-03-18T09:29:52.587Z,11.40
2019-03-18T09:30:59.953Z,11.40
2019-03-18T09:32:08.145Z,11.50
2019-03-18T09:33:19.413Z,11.50
2019-03-18T09:34:37.129Z,11.50
2019-03-18T09:35:41.359Z,11.50
2019-03-18T09:36:48.430Z,11.60
2019-03-18T09:37:54.126Z,11.60
2019-03-18T09:38:58.406Z,11.60
2019-03-18T09:40:10.935Z,11.60
2019-03-18T09:41:15.298Z,11.60
2019-03-18T09:42:24.565Z,11.60
2019-03-18T09:43:29.780Z,11.60
2019-03-18T09:44:36.453Z,11.60
2019-03-18T09:45:40.786Z,11.60
2019-03-18T09:46:55.357Z,11.60
2019-03-18T09:48:08.676Z,11.70
2019-03-18T09:49:20.913Z,11.60
2019-03-18T09:50:21.794Z,11.70
2019-03-18T09:51:29.939Z,11.70
2019-03-18T09:52:33.546Z,11.70
2019-03-18T09:53:42.524Z,11.70
2019-03-18T09:54:49.024Z,11.70
2019-03-18T09:56:05.830Z,11.70
2019-03-18T09:57:08.549Z,11.70
2019-03-18T09:58:23.969Z,11.70
2019-03-18T09:59:25.841Z,11.80
2019-03-18T10:00:32.063Z,11.90
2019-03-18T10:01:37.296Z,12.00
2019-03-18T10:02:43.070Z,12.00
2019-03-18T10:03:53.204Z,12.10
2019-03-18T10:04:58.572Z,12.10
2019-03-18T10:06:06.266Z,12.20
2019-03-18T10:07:12.077Z,12.20
2019-03-18T10:08:17.509Z,12.20
2019-03-18T10:09:25.501Z,12.20
2019-03-18T10:10:34.484Z,12.30
2019-03-18T10:11:40.545Z,12.30
2019-03-18T10:12:46.122Z,12.20
2019-03-18T10:13:54.177Z,12.30
2019-03-18T10:15:00.446Z,12.30
2019-03-18T10:16:08.462Z,12.30
2019-03-18T10:17:14.396Z,12.30
2019-03-18T10:18:24.433Z,12.20
2019-03-18T10:19:35.569Z,12.20
2019-03-18T10:20:42.188Z,12.20
2019-03-18T10:21:51.710Z,12.20
2019-03-18T10:22:55.805Z,12.20
2019-03-18T10:24:01.551Z,12.20
2019-03-18T10:25:08.889Z,12.20
2019-03-18T10:26:13.206Z,12.20
2019-03-18T10:27:20.546Z,12.20
2019-03-18T10:28:27.267Z,12.20
2019-03-18T10:29:48.059Z,12.30
2019-03-18T10:30:57.310Z,12.20
2019-03-18T10:32:02.928Z,12.20
2019-03-18T10:33:09.155Z,12.30
2019-03-18T10:34:14.686Z,12.30
2019-03-18T10:35:20.745Z,12.30
2019-03-18T10:36:26.997Z,12.30
2019-03-18T10:37:32.905Z,12.30
2019-03-18T10:38:46.025Z,12.30
2019-03-18T10:39:58.192Z,12.20
2019-03-18T10:41:03.882Z,12.20
2019-03-18T10:42:09.417Z,12.30
2019-03-18T10:43:13.984Z,12.30
2019-03-18T10:44:24.664Z,12.30
2019-03-18T10:45:29.032Z,12.40
2019-03-18T10:46:33.334Z,12.40
2019-03-18T10:47:37.648Z,12.40
2019-03-18T10:48:43.597Z,12.40
2019-03-18T10:49:52.946Z,12.50
2019-03-18T10:50:58.168Z,12.50
2019-03-18T10:52:02.427Z,12.50
2019-03-18T10:53:10.593Z,12.60
2019-03-18T10:54:30.111Z,12.70
2019-03-18T10:55:26.106Z,12.70
2019-03-18T10:56:32.792Z,12.80
2019-03-18T10:57:51.544Z,12.90
2019-03-18T10:58:49.806Z,12.90
2019-03-18T11:00:01.144Z,12.90
2019-03-18T11:01:05.182Z,13.00
2019-03-18T11:02:16.147Z,13.00
2019-03-18T11:03:18.142Z,13.00
2019-03-18T11:04:26.666Z,13.00
2019-03-18T11:05:33.810Z,13.00
2019-03-18T11:06:45.668Z,13.00
2019-03-18T11:07:59.293Z,13.00
2019-03-18T11:09:01.319Z,13.00
2019-03-18T11:10:15.694Z,12.90
2019-03-18T11:11:31.048Z,12.90
2019-03-18T11:12:29.653Z,12.90
2019-03-18T11:13:35.478Z,12.90
2019-03-18T11:14:42.035Z,12.90
2019-03-18T11:15:51.586Z,12.90
2019-03-18T11:16:58.648Z,12.90
2019-03-18T11:18:09.710Z,12.90
2019-03-18T11:19:17.006Z,12.90
2019-03-18T11:20:24.903Z,12.90
2019-03-18T11:21:33.797Z,12.90
2019-03-18T11:22:39.045Z,13.00
2019-03-18T11:23:46.929Z,13.00
2019-03-18T11:25:06.177Z,13.00
2019-03-18T11:26:13.364Z,13.00
2019-03-18T11:27:28.820Z,13.00
2019-03-18T11:28:40.871Z,12.90
2019-03-18T11:29:57.004Z,12.90
2019-03-18T11:30:53.230Z,12.90
2019-03-18T11:32:08.066Z,12.90
2019-03-18T11:33:12.106Z,12.90
2019-03-18T11:34:19.056Z,13.00
2019-03-18T11:35:31.437Z,13.00
2019-03-18T11:36:36.273Z,13.00
2019-03-18T11:37:43.843Z,13.00
2019-03-18T11:38:53.112Z,13.00
2019-03-18T11:39:57.411Z,13.00
2019-03-18T11:42:37.662Z,13.00
2019-03-18T11:42:44.358Z,13.00
2019-03-18T11:43:42.886Z,13.00
2019-03-18T11:44:48.670Z,13.00
2019-03-18T11:46:08.297Z,13.00
2019-03-18T11:47:18.492Z,13.00
2019-03-18T11:48:30.081Z,13.00
2019-03-18T11:49:39.837Z,13.00
2019-03-18T11:51:03.263Z,13.00
2019-03-18T11:52:10.790Z,13.00
2019-03-18T11:53:22.645Z,13.00
2019-03-18T11:54:29.703Z,12.90
2019-03-18T11:55:44.302Z,12.90
2019-03-18T11:56:47.448Z,12.80
2019-03-18T11:58:03.156Z,12.80
2019-03-18T11:59:06.118Z,12.70
2019-03-18T12:00:16.654Z,12.70
2019-03-18T12:06:21.362Z,12.40
2019-03-18T12:07:51.212Z,12.40
2019-03-18T12:08:46.450Z,12.40
2019-03-18T12:09:51.244Z,12.40
2019-03-18T12:10:57.153Z,12.40
2019-03-18T12:12:02.913Z,12.40
2019-03-18T12:13:12.916Z,12.50
2019-03-18T12:14:20.558Z,12.50
2019-03-18T12:15:30.316Z,12.50
2019-03-18T12:56:56.291Z,12.40
2019-03-18T13:01:48.632Z,12.50
2019-03-18T13:23:34.179Z,12.30
2019-03-18T13:24:55.189Z,12.30
2019-03-18T13:26:10.449Z,12.40
2019-03-18T13:31:23.286Z,12.60
2019-03-18T13:32:37.725Z,12.60
2019-03-18T13:35:12.761Z,12.70
2019-03-18T13:36:18.253Z,12.70
2019-03-18T13:37:22.499Z,12.70
2019-03-18T13:38:28.346Z,12.80
2019-03-18T13:39:34.867Z,12.70
2019-03-18T13:40:40.747Z,12.80
2019-03-18T13:41:45.763Z,12.80
2019-03-18T13:42:52.677Z,12.80
2019-03-18T13:44:15.980Z,12.70
2019-03-18T13:45:26.535Z,12.70
2019-03-18T13:47:25.350Z,12.70
2019-03-18T13:49:23.696Z,12.60
2019-03-18T13:50:31.363Z,12.60
2019-03-18T13:51:38.569Z,12.60
2019-03-18T13:53:22.405Z,12.50
2019-03-18T13:54:04.173Z,12.50
2019-03-18T13:55:18.592Z,12.50
2019-03-18T13:57:48.424Z,12.50
2019-03-18T13:58:54.105Z,12.50
2019-03-18T14:00:06.971Z,12.40
2019-03-18T14:01:11.974Z,12.40
2019-03-18T14:02:28.022Z,12.40
2019-03-18T14:03:33.963Z,12.40
2019-03-18T14:04:39.395Z,12.40
2019-03-18T14:05:57.217Z,12.40
2019-03-18T14:08:52.201Z,12.40
2019-03-18T14:13:08.087Z,12.30
2019-03-18T14:16:58.793Z,12.20
2019-03-18T14:18:24.962Z,12.20
2019-03-18T14:19:48.722Z,12.10
2019-03-18T14:21:03.169Z,12.10
2019-03-18T14:22:07.413Z,12.10
2019-03-18T14:26:44.678Z,12.00
2019-03-18T14:27:43.715Z,12.00
2019-03-18T14:28:43.236Z,12.00
2019-03-18T14:29:51.705Z,12.10
2019-03-18T14:30:57.691Z,12.10
2019-03-18T14:32:08.035Z,12.10
2019-03-18T14:33:13.079Z,12.10
2019-03-18T14:35:52.596Z,12.10
2019-03-18T14:36:20.420Z,12.10
2019-03-18T14:36:58.775Z,12.00
2019-03-18T14:39:20.366Z,12.00
2019-03-18T14:48:34.871Z,12.00
2019-03-18T14:49:31.232Z,11.90
2019-03-18T14:50:45.237Z,11.90
2019-03-18T15:00:25.322Z,11.80
2019-03-18T15:03:55.291Z,11.70
2019-03-18T15:08:19.213Z,11.70
2019-03-18T15:11:07.046Z,11.60
2019-03-18T15:11:55.729Z,11.60
2019-03-18T15:16:45.706Z,11.60
2019-03-18T15:24:03.404Z,11.40
2019-03-18T15:24:47.374Z,11.30
2019-03-18T15:33:20.445Z,11.40
2019-03-18T15:36:28.280Z,11.50
2019-03-18T15:37:00.057Z,11.50
2019-03-18T15:38:41.905Z,11.50
2019-03-18T15:39:39.637Z,11.50
2019-03-18T15:44:20.247Z,11.50
2019-03-18T15:47:03.838Z,11.50
2019-03-18T15:50:07.957Z,11.40
2019-03-18T15:51:10.979Z,11.30
2019-03-18T15:52:33.685Z,11.20
2019-03-18T15:53:41.053Z,11.10
2019-03-18T15:54:53.946Z,11.00
2019-03-18T15:57:29.498Z,10.80
2019-03-18T15:57:40.715Z,10.90
2019-03-18T16:00:29.526Z,10.70
2019-03-18T16:04:40.349Z,10.50
2019-03-18T16:07:40.132Z,10.30
2019-03-18T16:08:53.036Z,10.30
2019-03-18T16:11:55.334Z,10.30
2019-03-18T16:14:33.445Z,10.20
2019-03-18T16:22:05.210Z,10.00
2019-03-18T16:24:18.671Z,10.00
2019-03-18T16:26:18.685Z,10.00
2019-03-18T16:26:56.278Z,10.00
2019-03-18T16:28:55.996Z,10.00
2019-03-18T16:31:14.885Z,9.90
2019-03-18T16:34:11.319Z,9.90
2019-03-18T16:36:22.541Z,9.90
2019-03-18T16:37:39.653Z,9.90
2019-03-18T16:40:44.960Z,9.80
2019-03-18T16:45:49.425Z,9.70
2019-03-18T16:47:27.316Z,9.70
2019-03-18T16:58:33.553Z,9.40
2019-03-18T17:00:35.388Z,9.90
2019-03-18T17:00:42.948Z,9.30
2019-03-18T17:01:53.838Z,9.30
2019-03-18T17:03:10.018Z,9.30
2019-03-18T17:05:05.695Z,9.40
2019-03-18T17:05:46.865Z,9.30
2019-03-18T17:06:54.147Z,9.30
2019-03-18T17:09:02.273Z,9.20
2019-03-18T17:11:14.924Z,9.20
2019-03-18T17:16:52.886Z,9.10
2019-03-18T17:19:08.535Z,9.10
2019-03-18T17:20:16.691Z,9.10
2019-03-18T17:47:33.049Z,8.80
2019-03-18T17:48:45.844Z,8.70
2019-03-18T17:49:55.479Z,8.60
2019-03-18T17:54:36.518Z,8.60
2019-03-18T17:57:13.906Z,8.60
2019-03-18T18:05:02.473Z,8.60
2019-03-18T18:06:05.558Z,8.50
2019-03-18T18:07:13.620Z,8.50
2019-03-18T18:07:22.317Z,8.60
2019-03-18T18:08:21.021Z,8.50
2019-03-18T18:09:33.842Z,8.50
2019-03-18T18:10:45.114Z,8.40
2019-03-18T18:13:19.491Z,8.40
2019-03-18T18:19:15.192Z,8.40
2019-03-18T18:20:56.240Z,8.40
2019-03-18T18:21:57.711Z,8.30
2019-03-18T18:23:14.414Z,8.30
2019-03-18T18:25:37.712Z,8.30
2019-03-18T18:26:51.272Z,8.20
2019-03-18T18:28:08.370Z,8.20
2019-03-18T18:30:57.257Z,8.20
2019-03-18T18:31:50.658Z,8.20
2019-03-18T18:32:57.975Z,8.20
2019-03-18T18:34:09.195Z,8.20
2019-03-18T18:36:31.451Z,8.20
2019-03-18T18:37:37.343Z,8.20
2019-03-18T18:38:41.711Z,8.10
2019-03-18T18:41:26.588Z,8.10
2019-03-18T18:42:39.156Z,8.10
2019-03-18T18:44:09.385Z,8.10
2019-03-18T18:45:12.791Z,8.10
2019-03-18T18:46:21.308Z,8.10
2019-03-18T18:47:30.809Z,8.00
2019-03-18T18:48:48.208Z,8.00
2019-03-18T18:50:07.719Z,8.00
2019-03-18T18:51:28.657Z,8.00
2019-03-18T18:52:33.863Z,8.00
2019-03-18T18:53:46.841Z,8.00
2019-03-18T18:56:38.387Z,7.90
2019-03-18T18:58:56.984Z,7.90
2019-03-18T18:59:25.657Z,7.90
2019-03-18T19:00:35.970Z,7.90
2019-03-18T19:06:16.987Z,7.80
2019-03-18T19:07:23.855Z,7.80
2019-03-18T19:08:37.891Z,7.80
2019-03-18T19:09:45.712Z,7.80
2019-03-18T19:11:03.058Z,7.80
2019-03-18T19:12:08.648Z,7.80
2019-03-18T19:13:23.916Z,7.80
2019-03-18T19:14:49.638Z,7.70
2019-03-18T19:15:46.620Z,7.70
2019-03-18T19:17:03.759Z,7.70
2019-03-18T19:20:48.037Z,7.70
2019-03-18T19:21:09.548Z,7.70
2019-03-18T19:22:33.487Z,7.70
2019-03-18T19:26:11.109Z,7.60
2019-03-18T19:26:47.056Z,7.60
2019-03-18T19:51:02.382Z,7.30
2019-03-18T19:56:26.195Z,7.30
2019-03-18T19:57:39.413Z,7.20
2019-03-18T19:59:49.791Z,7.30
2019-03-18T20:04:19.532Z,7.20
2019-03-18T20:05:29.063Z,7.20
2019-03-18T20:06:34.436Z,7.20
2019-03-18T20:07:38.812Z,7.20
2019-03-18T20:08:43.587Z,7.20
2019-03-18T20:09:49.699Z,7.10
2019-03-18T20:11:02.077Z,7.10
2019-03-18T20:12:05.871Z,7.10
2019-03-18T20:13:42.024Z,7.10
2019-03-18T20:15:07.227Z,7.10
2019-03-18T20:17:10.570Z,7.10
2019-03-18T20:18:19.921Z,7.00
2019-03-18T20:20:42.507Z,7.00
2019-03-18T20:21:47.206Z,7.00
2019-03-18T20:22:51.482Z,7.00
2019-03-18T20:24:01.063Z,7.00
2019-03-18T20:25:03.271Z,7.00
2019-03-18T20:26:11.500Z,7.00
2019-03-18T20:27:17.235Z,7.00
2019-03-18T20:28:22.992Z,7.00
2019-03-18T20:29:27.127Z,6.90
2019-03-18T20:30:33.975Z,6.90
2019-03-18T20:31:38.237Z,6.90
2019-03-18T20:32:43.987Z,6.90
2019-03-18T20:33:52.731Z,6.90
2019-03-18T20:34:56.995Z,6.90
2019-03-18T20:36:01.278Z,6.90
2019-03-18T20:37:06.561Z,6.90
2019-03-18T20:38:10.760Z,6.90